Time;durP1;ratioP1;P1;durP2;ratioP2;P2;SDS_P1;SDS_P2;PMS_P1;PMS_P2;Temp;Humidity;BMP_temperature;BMP_pressure;BME280_temperature;BME280_humidity;BME280_pressure;Samples;Min_cycle;Max_cycle;Signal;HPM_P1;HPM_P2
2023/05/06 00:00:21;;;;;;;15.38;10.10;;;;;;;;;;4981738;28;20159;-59
2023/05/06 00:02:46;;;;;;;11.23;10.05;;;;;;;;;;4980953;28;20109;-60
2023/05/06 00:05:13;;;;;;;11.10;9.50;;;;;;;;;;4983888;28;20100;-59
2023/05/06 00:07:38;;;;;;;11.98;9.57;;;;;;;;;;4982944;28;20060;-59
2023/05/06 00:10:05;;;;;;;12.95;10.40;;;;;;;;;;4986523;28;20035;-59
2023/05/06 00:12:31;;;;;;;11.27;9.05;;;;;;;;;;4982527;28;20034;-59
2023/05/06 00:14:56;;;;;;;10.00;8.27;;;;;;;;;;4982914;28;20579;-60
2023/05/06 00:17:21;;;;;;;10.00;8.68;;;;;;;;;;4984167;28;20066;-60
2023/05/06 00:19:47;;;;;;;11.77;9.25;;;;;;;;;;4985485;28;20038;-60
2023/05/06 00:22:12;;;;;;;10.65;8.77;;;;;;;;;;4982152;28;20525;-59
2023/05/06 00:24:38;;;;;;;12.30;8.25;;;;;;;;;;4982000;28;20152;-59
2023/05/06 00:27:03;;;;;;;12.73;8.60;;;;;;;;;;4981823;28;20056;-59
2023/05/06 00:29:29;;;;;;;9.55;8.02;;;;;;;;;;4982021;28;20073;-59
2023/05/06 00:31:55;;;;;;;10.43;9.07;;;;;;;;;;4980070;28;20401;-59
2023/05/06 00:34:20;;;;;;;10.38;8.60;;;;;;;;;;4987578;28;20114;-59
2023/05/06 00:36:46;;;;;;;10.25;8.85;;;;;;;;;;4981944;28;20053;-59
2023/05/06 00:39:11;;;;;;;9.77;7.53;;;;;;;;;;4995939;28;20042;-59
2023/05/06 00:41:37;;;;;;;7.95;7.15;;;;;;;;;;4983753;28;20047;-59
2023/05/06 00:44:02;;;;;;;8.27;7.20;;;;;;;;;;4982961;28;20534;-59
2023/05/06 00:46:27;;;;;;;9.10;6.60;;;;;;;;;;4981274;28;20031;-59
2023/05/06 00:48:54;;;;;;;8.00;7.22;;;;;;;;;;4983699;28;20099;-60
2023/05/06 00:51:19;;;;;;;14.38;6.55;;;;;;;;;;4982992;28;20125;-60
2023/05/06 00:53:47;;;;;;;8.27;6.40;;;;;;;;;;4983631;28;20520;-61
2023/05/06 00:56:13;;;;;;;8.77;7.03;;;;;;;;;;4984276;28;20037;-61
2023/05/06 00:58:39;;;;;;;8.23;6.68;;;;;;;;;;4983621;28;20759;-58
2023/05/06 01:01:04;;;;;;;8.38;7.10;;;;;;;;;;4982383;28;20031;-59
2023/05/06 01:03:30;;;;;;;7.97;7.18;;;;;;;;;;4973329;28;20048;-59
2023/05/06 01:06:06;;;;;;;7.95;6.97;;;;;;;;;;4982478;28;20036;-59
2023/05/06 01:08:38;;;;;;;7.60;6.90;;;;;;;;;;4982879;28;20030;-59
2023/05/06 01:11:11;;;;;;;8.95;6.50;;;;;;;;;;4981280;28;20030;-59
2023/05/06 01:13:47;;;;;;;7.93;7.15;;;;;;;;;;4983106;28;20153;-59
2023/05/06 01:16:14;;;;;;;7.38;6.13;;;;;;;;;;4979948;28;20066;-59
2023/05/06 01:18:41;;;;;;;7.00;6.30;;;;;;;;;;4982287;28;20113;-59
2023/05/06 01:21:06;;;;;;;8.02;6.88;;;;;;;;;;4981980;28;20051;-59
2023/05/06 01:23:51;;;;;;;7.18;6.47;;;;;;;;;;4982950;28;20409;-59
2023/05/06 01:26:16;;;;;;;8.00;6.32;;;;;;;;;;4981473;28;20045;-59
2023/05/06 01:28:42;;;;;;;7.03;6.32;;;;;;;;;;4984692;28;20043;-59
2023/05/06 01:31:10;;;;;;;6.75;6.07;;;;;;;;;;4979807;28;20041;-59
2023/05/06 01:33:36;;;;;;;7.95;6.80;;;;;;;;;;4981368;28;20070;-59
2023/05/06 01:36:01;;;;;;;7.78;6.50;;;;;;;;;;4982199;28;20129;-59
2023/05/06 01:38:56;;;;;;;6.63;6.03;;;;;;;;;;4982883;28;20141;-59
2023/05/06 01:41:23;;;;;;;8.33;6.70;;;;;;;;;;4976988;28;20576;-60
2023/05/06 01:43:51;;;;;;;7.28;6.53;;;;;;;;;;4971891;28;20299;-60
2023/05/06 01:46:17;;;;;;;8.68;7.05;;;;;;;;;;4981801;28;20117;-60
2023/05/06 01:48:44;;;;;;;11.48;7.40;;;;;;;;;;4978771;28;20041;-60
2023/05/06 01:51:09;;;;;;;8.10;7.22;;;;;;;;;;4982620;28;20038;-60
2023/05/06 01:53:35;;;;;;;7.22;6.50;;;;;;;;;;4980371;28;20046;-60
2023/05/06 01:56:00;;;;;;;8.15;6.43;;;;;;;;;;4981686;28;20042;-60
2023/05/06 01:58:26;;;;;;;11.07;7.30;;;;;;;;;;4979168;28;20031;-60
2023/05/06 02:00:51;;;;;;;8.00;7.22;;;;;;;;;;4980556;28;20045;-60
2023/05/06 02:03:17;;;;;;;6.70;6.10;;;;;;;;;;4984112;28;20030;-60
2023/05/06 02:05:46;;;;;;;7.35;6.65;;;;;;;;;;4991947;28;20077;-60
2023/05/06 02:08:19;;;;;;;8.63;6.45;;;;;;;;;;4984882;28;20085;-61
2023/05/06 02:10:45;;;;;;;9.00;7.10;;;;;;;;;;4988827;28;20066;-60
2023/05/06 02:13:17;;;;;;;9.40;7.15;;;;;;;;;;4990494;28;20690;-61
2023/05/06 02:15:42;;;;;;;8.20;6.63;;;;;;;;;;4987208;28;20046;-60
2023/05/06 02:18:14;;;;;;;7.03;6.43;;;;;;;;;;4985232;28;20053;-61
2023/05/06 02:20:40;;;;;;;7.50;6.70;;;;;;;;;;4983660;28;20042;-61
2023/05/06 02:23:14;;;;;;;9.57;7.85;;;;;;;;;;4992363;28;20135;-62
2023/05/06 02:25:42;;;;;;;7.57;6.88;;;;;;;;;;4987371;28;20045;-58
2023/05/06 02:28:08;;;;;;;7.40;6.70;;;;;;;;;;4978196;28;20030;-59
2023/05/06 02:30:35;;;;;;;9.27;7.35;;;;;;;;;;4987962;28;20848;-58
2023/05/06 02:33:02;;;;;;;7.82;7.07;;;;;;;;;;4975520;28;20039;-58
2023/05/06 02:35:28;;;;;;;7.43;6.75;;;;;;;;;;4992777;28;20132;-59
2023/05/06 02:37:54;;;;;;;7.85;6.35;;;;;;;;;;4985512;28;20146;-60
2023/05/06 02:40:21;;;;;;;7.88;6.65;;;;;;;;;;4991782;28;20892;-59
2023/05/06 02:42:48;;;;;;;7.63;6.90;;;;;;;;;;4988538;28;20039;-63
2023/05/06 02:45:15;;;;;;;9.43;7.63;;;;;;;;;;4973270;28;20050;-60
2023/05/06 02:47:49;;;;;;;7.88;7.13;;;;;;;;;;4986791;28;20057;-60
2023/05/06 02:50:24;;;;;;;8.43;7.07;;;;;;;;;;4984565;28;20053;-59
2023/05/06 02:52:51;;;;;;;7.78;6.82;;;;;;;;;;4983837;28;20051;-60
2023/05/06 02:55:18;;;;;;;9.95;7.60;;;;;;;;;;4980892;28;20049;-60
2023/05/06 02:57:52;;;;;;;10.57;7.57;;;;;;;;;;4987508;28;20034;-59
2023/05/06 03:00:18;;;;;;;9.40;7.85;;;;;;;;;;4987579;28;20054;-59
2023/05/06 03:02:44;;;;;;;8.63;7.30;;;;;;;;;;4974181;28;20111;-61
2023/05/06 03:05:10;;;;;;;8.68;7.80;;;;;;;;;;4986110;28;20064;-62
2023/05/06 03:07:36;;;;;;;9.93;8.25;;;;;;;;;;4986343;28;20030;-62
2023/05/06 03:10:02;;;;;;;9.63;7.85;;;;;;;;;;4985484;28;20069;-59
2023/05/06 03:12:31;;;;;;;10.75;7.28;;;;;;;;;;4980887;28;20046;-59
2023/05/06 03:14:56;;;;;;;8.15;7.43;;;;;;;;;;4972795;28;20105;-64
2023/05/06 03:17:22;;;;;;;8.70;7.90;;;;;;;;;;4946052;28;1472740;-63
2023/05/06 03:19:49;;;;;;;8.38;7.15;;;;;;;;;;4974108;28;20050;-61
2023/05/06 03:22:16;;;;;;;9.40;8.07;;;;;;;;;;4986692;28;20026;-62
2023/05/06 03:24:43;;;;;;;9.43;8.52;;;;;;;;;;4999197;28;20035;-59
2023/05/06 03:27:09;;;;;;;8.27;7.35;;;;;;;;;;4985914;28;20027;-63
2023/05/06 03:29:35;;;;;;;8.55;7.68;;;;;;;;;;4963327;28;20586;-60
2023/05/06 03:32:04;;;;;;;8.50;7.70;;;;;;;;;;4986939;28;20489;-60
2023/05/06 03:34:34;;;;;;;9.15;7.78;;;;;;;;;;4985958;28;20093;-60
2023/05/06 03:37:00;;;;;;;10.48;8.68;;;;;;;;;;4990580;28;20040;-60
2023/05/06 03:39:27;;;;;;;10.38;8.23;;;;;;;;;;4985890;28;20099;-61
2023/05/06 03:41:52;;;;;;;9.95;8.00;;;;;;;;;;5000488;28;20134;-60
2023/05/06 03:44:18;;;;;;;11.40;8.63;;;;;;;;;;4974174;28;20044;-59
2023/05/06 03:46:44;;;;;;;8.68;7.45;;;;;;;;;;4981299;28;20134;-59
2023/05/06 03:49:10;;;;;;;10.00;8.88;;;;;;;;;;4972658;28;20486;-59
2023/05/06 03:51:37;;;;;;;9.35;8.38;;;;;;;;;;4980020;28;20089;-60
2023/05/06 03:54:03;;;;;;;13.23;8.93;;;;;;;;;;4981791;28;20066;-59
2023/05/06 03:56:31;;;;;;;11.93;9.45;;;;;;;;;;4962311;28;20041;-59
2023/05/06 03:58:57;;;;;;;11.73;8.98;;;;;;;;;;4980602;28;20767;-59
2023/05/06 04:01:25;;;;;;;11.30;8.45;;;;;;;;;;4993243;28;20573;-59
2023/05/06 04:03:51;;;;;;;9.45;8.40;;;;;;;;;;4981719;28;20035;-60
2023/05/06 04:06:17;;;;;;;9.50;8.55;;;;;;;;;;4984404;28;20034;-59
2023/05/06 04:08:42;;;;;;;9.02;8.13;;;;;;;;;;4985725;28;20019;-60
2023/05/06 04:11:08;;;;;;;11.82;8.38;;;;;;;;;;4985361;28;20035;-59
2023/05/06 04:13:35;;;;;;;13.02;8.75;;;;;;;;;;4987444;28;20030;-60
2023/05/06 04:16:05;;;;;;;9.23;8.32;;;;;;;;;;4987249;28;20038;-59
2023/05/06 04:18:38;;;;;;;10.32;8.38;;;;;;;;;;4945980;28;20050;-60
2023/05/06 04:21:10;;;;;;;8.95;8.15;;;;;;;;;;4959263;28;20043;-60
2023/05/06 04:23:38;;;;;;;12.45;8.82;;;;;;;;;;4933829;28;20086;-60
2023/05/06 04:26:05;;;;;;;9.27;8.18;;;;;;;;;;4947841;28;20483;-60
2023/05/06 04:28:32;;;;;;;12.05;8.25;;;;;;;;;;4947812;28;20055;-60
2023/05/06 04:30:58;;;;;;;9.70;7.82;;;;;;;;;;4943305;28;20035;-62
2023/05/06 04:33:33;;;;;;;9.48;8.48;;;;;;;;;;4941489;28;20119;-61
2023/05/06 04:36:00;;;;;;;8.88;7.88;;;;;;;;;;4942992;28;20042;-63
2023/05/06 04:38:30;;;;;;;9.93;8.93;;;;;;;;;;4933105;28;20109;-60
2023/05/06 04:40:57;;;;;;;10.00;8.48;;;;;;;;;;4946855;28;20044;-57
2023/05/06 04:43:23;;;;;;;9.55;8.60;;;;;;;;;;4945873;28;20035;-59
2023/05/06 04:45:55;;;;;;;9.02;7.57;;;;;;;;;;4959719;28;20234;-60
2023/05/06 04:48:25;;;;;;;9.48;8.15;;;;;;;;;;4949953;28;20024;-60
2023/05/06 04:50:54;;;;;;;10.10;9.18;;;;;;;;;;4944040;28;20525;-60
2023/05/06 04:53:19;;;;;;;9.18;8.23;;;;;;;;;;4933444;28;20154;-59
2023/05/06 04:55:45;;;;;;;9.30;8.10;;;;;;;;;;4959110;28;20049;-58
2023/05/06 04:58:10;;;;;;;11.05;8.02;;;;;;;;;;4944010;28;20030;-59
2023/05/06 05:00:37;;;;;;;12.38;8.77;;;;;;;;;;4933774;28;20135;-58
2023/05/06 05:03:03;;;;;;;8.70;7.90;;;;;;;;;;4942910;28;20123;-60
2023/05/06 05:05:29;;;;;;;8.85;8.00;;;;;;;;;;4941707;28;20445;-60
2023/05/06 05:07:55;;;;;;;8.68;7.88;;;;;;;;;;4934766;28;20433;-61
2023/05/06 05:10:22;;;;;;;8.93;7.97;;;;;;;;;;4946173;28;20759;-60
2023/05/06 05:12:49;;;;;;;9.07;8.18;;;;;;;;;;4947031;28;20035;-59
2023/05/06 05:15:15;;;;;;;10.25;8.95;;;;;;;;;;4940786;28;20367;-59
2023/05/06 05:17:40;;;;;;;8.13;7.32;;;;;;;;;;4967155;28;20042;-59
2023/05/06 05:20:06;;;;;;;9.20;7.38;;;;;;;;;;4986530;28;20086;-60
2023/05/06 05:22:31;;;;;;;9.98;7.20;;;;;;;;;;4971363;28;20524;-60
2023/05/06 05:24:58;;;;;;;12.52;8.60;;;;;;;;;;4981910;28;20045;-60
2023/05/06 05:27:23;;;;;;;9.02;8.20;;;;;;;;;;4969638;28;20477;-60
2023/05/06 05:29:50;;;;;;;9.45;7.15;;;;;;;;;;4987582;28;20126;-59
2023/05/06 05:32:16;;;;;;;8.52;7.72;;;;;;;;;;4985409;28;20050;-60
2023/05/06 05:34:42;;;;;;;9.38;8.18;;;;;;;;;;4996705;28;20141;-61
2023/05/06 05:37:09;;;;;;;10.75;9.23;;;;;;;;;;4985299;28;20030;-60
2023/05/06 05:39:34;;;;;;;10.50;9.02;;;;;;;;;;4976893;28;20476;-61
2023/05/06 05:42:01;;;;;;;11.50;8.10;;;;;;;;;;4984185;28;20049;-60
2023/05/06 05:44:27;;;;;;;9.15;7.68;;;;;;;;;;4979321;28;20030;-59
2023/05/06 05:46:53;;;;;;;8.88;7.97;;;;;;;;;;4980061;28;20041;-60
2023/05/06 05:49:19;;;;;;;8.25;7.45;;;;;;;;;;4987382;28;20046;-59
2023/05/06 05:51:46;;;;;;;7.50;6.80;;;;;;;;;;4997019;28;20039;-59
2023/05/06 05:54:15;;;;;;;8.50;7.60;;;;;;;;;;4993248;28;20488;-59
2023/05/06 05:56:41;;;;;;;7.57;6.78;;;;;;;;;;4979995;28;20125;-60
2023/05/06 05:59:07;;;;;;;9.05;8.15;;;;;;;;;;4970197;28;20034;-60
2023/05/06 06:01:33;;;;;;;8.68;6.63;;;;;;;;;;4998456;28;20111;-60
2023/05/06 06:03:59;;;;;;;7.78;6.97;;;;;;;;;;4980223;28;20077;-59
2023/05/06 06:06:25;;;;;;;7.30;6.60;;;;;;;;;;4981910;28;20104;-60
2023/05/06 06:08:51;;;;;;;8.00;7.20;;;;;;;;;;4983239;28;20497;-58
2023/05/06 06:11:17;;;;;;;8.02;7.28;;;;;;;;;;4996131;28;20137;-59
2023/05/06 06:13:43;;;;;;;8.82;7.35;;;;;;;;;;4982971;28;20034;-59
2023/05/06 06:16:09;;;;;;;8.35;7.55;;;;;;;;;;4978886;28;20058;-59
2023/05/06 06:18:35;;;;;;;7.53;6.45;;;;;;;;;;4978529;28;20034;-60
2023/05/06 06:21:01;;;;;;;9.45;7.32;;;;;;;;;;4998240;28;20492;-60
2023/05/06 06:23:27;;;;;;;7.40;6.78;;;;;;;;;;4970947;28;20030;-60
2023/05/06 06:25:52;;;;;;;11.07;9.93;;;;;;;;;;4986416;28;20042;-60
2023/05/06 06:28:18;;;;;;;11.52;10.32;;;;;;;;;;4983810;28;20122;-59
2023/05/06 06:30:44;;;;;;;13.73;11.55;;;;;;;;;;4984472;28;20149;-62
2023/05/06 06:33:10;;;;;;;12.43;8.98;;;;;;;;;;4982923;28;20038;-59
2023/05/06 06:35:36;;;;;;;8.32;7.53;;;;;;;;;;4980232;28;20540;-60
2023/05/06 06:38:01;;;;;;;9.25;7.85;;;;;;;;;;4980154;28;20807;-59
2023/05/06 06:40:27;;;;;;;7.40;6.70;;;;;;;;;;4966187;28;21027;-59
2023/05/06 06:42:52;;;;;;;7.57;6.68;;;;;;;;;;4982057;28;20038;-60
2023/05/06 06:45:38;;;;;;;6.20;5.60;;;;;;;;;;4947062;28;20053;-58
2023/05/06 06:48:03;;;;;;;6.90;6.28;;;;;;;;;;4981651;28;20046;-58
2023/05/06 06:50:29;;;;;;;7.65;5.32;;;;;;;;;;4976594;28;20461;-59
2023/05/06 06:52:54;;;;;;;6.63;5.95;;;;;;;;;;4980654;28;21008;-60
2023/05/06 06:55:20;;;;;;;7.40;6.70;;;;;;;;;;4980217;28;20721;-59
2023/05/06 06:57:46;;;;;;;6.63;5.70;;;;;;;;;;4982655;28;20068;-58
2023/05/06 07:00:12;;;;;;;7.30;6.57;;;;;;;;;;4979829;28;20100;-58
2023/05/06 07:02:37;;;;;;;6.63;6.00;;;;;;;;;;4980985;28;20463;-58
2023/05/06 07:05:03;;;;;;;6.47;5.97;;;;;;;;;;4979995;28;20039;-58
2023/05/06 07:07:28;;;;;;;7.28;6.57;;;;;;;;;;4980784;28;20898;-59
2023/05/06 07:09:55;;;;;;;6.45;5.82;;;;;;;;;;4979964;28;20448;-59
2023/05/06 07:12:20;;;;;;;6.43;5.82;;;;;;;;;;4979091;28;20069;-58
2023/05/06 07:14:46;;;;;;;7.43;5.93;;;;;;;;;;4980153;28;20608;-59
2023/05/06 07:17:11;;;;;;;6.22;5.65;;;;;;;;;;4978626;28;20062;-58
2023/05/06 07:19:37;;;;;;;8.45;5.35;;;;;;;;;;4980148;28;20149;-59
2023/05/06 07:22:02;;;;;;;6.20;5.70;;;;;;;;;;4978785;28;20069;-59
2023/05/06 07:24:28;;;;;;;5.50;4.93;;;;;;;;;;4978473;28;20077;-58
2023/05/06 07:26:54;;;;;;;5.22;4.72;;;;;;;;;;4981513;28;20030;-58
2023/05/06 07:29:19;;;;;;;4.78;4.38;;;;;;;;;;4977997;28;20034;-60
2023/05/06 07:31:44;;;;;;;5.88;5.38;;;;;;;;;;4981106;28;20525;-60
2023/05/06 07:34:10;;;;;;;5.88;5.28;;;;;;;;;;4979903;28;20050;-59
2023/05/06 07:36:39;;;;;;;5.25;4.85;;;;;;;;;;4979832;28;20042;-60
2023/05/06 07:39:07;;;;;;;4.38;4.07;;;;;;;;;;4981080;28;20097;-58
2023/05/06 07:41:33;;;;;;;4.82;4.53;;;;;;;;;;4979732;28;20045;-59
2023/05/06 07:43:59;;;;;;;5.97;4.97;;;;;;;;;;4979302;28;20034;-59
2023/05/06 07:46:24;;;;;;;4.47;3.90;;;;;;;;;;4977388;28;20046;-59
2023/05/06 07:48:50;;;;;;;4.15;3.72;;;;;;;;;;4977941;28;20042;-59
2023/05/06 07:51:15;;;;;;;4.55;3.60;;;;;;;;;;4980087;28;20050;-60
2023/05/06 07:53:41;;;;;;;4.22;3.83;;;;;;;;;;4979059;28;20084;-60
2023/05/06 07:56:06;;;;;;;4.35;3.95;;;;;;;;;;4981857;28;20501;-60
2023/05/06 07:58:32;;;;;;;4.28;3.92;;;;;;;;;;4983892;28;20046;-60
2023/05/06 08:00:57;;;;;;;3.72;3.42;;;;;;;;;;4982738;28;20037;-59
2023/05/06 08:03:23;;;;;;;6.00;3.60;;;;;;;;;;4984447;28;20110;-59
2023/05/06 08:05:49;;;;;;;3.25;3.05;;;;;;;;;;4974325;28;20078;-60
2023/05/06 08:08:15;;;;;;;3.05;2.85;;;;;;;;;;4982232;28;20493;-60
2023/05/06 08:10:42;;;;;;;3.63;3.42;;;;;;;;;;4981802;28;20133;-60
2023/05/06 08:13:07;;;;;;;4.18;2.85;;;;;;;;;;4983815;28;20038;-60
2023/05/06 08:15:32;;;;;;;3.30;3.10;;;;;;;;;;4981742;28;20588;-60
2023/05/06 08:17:58;;;;;;;3.20;2.90;;;;;;;;;;4986828;28;20062;-64
2023/05/06 08:20:24;;;;;;;3.17;2.97;;;;;;;;;;4983628;28;20438;-60
2023/05/06 08:22:49;;;;;;;3.90;3.60;;;;;;;;;;4983396;28;20026;-58
2023/05/06 08:25:15;;;;;;;3.70;2.83;;;;;;;;;;4982566;28;20053;-56
2023/05/06 08:27:41;;;;;;;4.03;3.47;;;;;;;;;;4983584;28;20034;-59
2023/05/06 08:30:07;;;;;;;3.55;3.30;;;;;;;;;;4981981;28;20046;-59
2023/05/06 08:32:32;;;;;;;3.65;3.45;;;;;;;;;;4981797;28;20376;-59
2023/05/06 08:34:59;;;;;;;3.88;3.58;;;;;;;;;;4982049;28;20133;-59
2023/05/06 08:37:24;;;;;;;5.68;5.15;;;;;;;;;;4982876;28;20057;-60
2023/05/06 08:39:50;;;;;;;3.90;3.60;;;;;;;;;;4980288;28;20465;-59
2023/05/06 08:42:16;;;;;;;4.18;3.80;;;;;;;;;;4984805;28;20046;-62
2023/05/06 08:44:42;;;;;;;4.45;3.80;;;;;;;;;;4983922;28;20041;-59
2023/05/06 08:47:07;;;;;;;3.80;3.50;;;;;;;;;;4985159;28;20040;-58
2023/05/06 08:49:33;;;;;;;3.92;3.55;;;;;;;;;;4983048;28;20088;-60
2023/05/06 08:52:01;;;;;;;3.85;3.50;;;;;;;;;;4983305;28;20121;-59
2023/05/06 08:54:27;;;;;;;3.85;3.47;;;;;;;;;;4982371;28;20043;-59
2023/05/06 08:56:55;;;;;;;4.97;4.50;;;;;;;;;;4978959;28;20082;-59
2023/05/06 08:59:22;;;;;;;10.77;3.78;;;;;;;;;;4982014;28;20035;-59
2023/05/06 09:01:48;;;;;;;4.85;4.45;;;;;;;;;;4982016;28;20038;-59
2023/05/06 09:04:14;;;;;;;4.40;4.10;;;;;;;;;;4980043;28;20037;-59
2023/05/06 09:06:40;;;;;;;4.57;3.65;;;;;;;;;;4981767;28;20060;-60
2023/05/06 09:09:06;;;;;;;3.75;3.47;;;;;;;;;;4981441;28;20375;-62
2023/05/06 09:11:31;;;;;;;4.40;4.10;;;;;;;;;;4983051;28;20046;-60
2023/05/06 09:14:13;;;;;;;4.53;4.13;;;;;;;;;;4979053;28;20865;-60
2023/05/06 09:16:40;;;;;;;5.13;4.72;;;;;;;;;;4979703;28;20058;-56
2023/05/06 09:19:05;;;;;;;5.18;4.35;;;;;;;;;;4983255;28;20042;-60
2023/05/06 09:21:32;;;;;;;4.97;4.65;;;;;;;;;;4981737;28;20037;-58
2023/05/06 09:23:58;;;;;;;4.30;3.90;;;;;;;;;;4983105;28;20414;-58
2023/05/06 09:26:23;;;;;;;5.43;5.03;;;;;;;;;;4979665;28;20355;-58
2023/05/06 09:28:50;;;;;;;4.85;4.45;;;;;;;;;;4985178;28;20353;-58
2023/05/06 09:31:15;;;;;;;4.35;4.07;;;;;;;;;;4984508;28;20081;-59
2023/05/06 09:33:41;;;;;;;4.60;4.30;;;;;;;;;;4981808;28;20030;-60
2023/05/06 09:36:06;;;;;;;5.00;4.53;;;;;;;;;;4982817;28;20033;-58
2023/05/06 09:38:32;;;;;;;5.25;4.75;;;;;;;;;;4984209;28;20133;-59
2023/05/06 09:40:57;;;;;;;5.22;4.82;;;;;;;;;;4982070;28;20030;-58
2023/05/06 09:43:23;;;;;;;5.53;5.07;;;;;;;;;;4981345;28;20038;-59
2023/05/06 09:45:49;;;;;;;5.07;4.57;;;;;;;;;;4981606;28;20041;-58
2023/05/06 09:48:15;;;;;;;4.75;4.45;;;;;;;;;;4982448;28;20382;-57
2023/05/06 09:50:42;;;;;;;5.05;4.60;;;;;;;;;;4980267;28;20042;-60
2023/05/06 09:53:09;;;;;;;5.88;4.38;;;;;;;;;;4980985;28;20035;-58
2023/05/06 09:55:35;;;;;;;4.38;3.97;;;;;;;;;;4983453;28;20049;-59
2023/05/06 09:58:01;;;;;;;5.25;4.85;;;;;;;;;;4983171;28;20044;-60
2023/05/06 10:00:28;;;;;;;4.45;4.13;;;;;;;;;;4981072;28;20038;-60
2023/05/06 10:02:54;;;;;;;4.63;4.32;;;;;;;;;;4978949;28;20046;-58
2023/05/06 10:05:21;;;;;;;4.43;4.13;;;;;;;;;;4980278;28;20041;-58
2023/05/06 10:07:47;;;;;;;4.57;4.00;;;;;;;;;;4985308;28;20161;-59
2023/05/06 10:10:13;;;;;;;5.28;4.78;;;;;;;;;;4984275;28;20034;-58
2023/05/06 10:12:38;;;;;;;4.43;4.07;;;;;;;;;;4979636;28;20324;-58
2023/05/06 10:15:04;;;;;;;5.88;5.38;;;;;;;;;;4978515;28;20051;-58
2023/05/06 10:17:30;;;;;;;4.93;4.43;;;;;;;;;;4980647;28;20461;-57
2023/05/06 10:19:57;;;;;;;5.15;4.65;;;;;;;;;;4979781;28;20049;-59
2023/05/06 10:22:26;;;;;;;4.75;4.40;;;;;;;;;;4981024;28;20496;-58
2023/05/06 10:24:57;;;;;;;6.88;5.25;;;;;;;;;;4978807;28;20039;-58
2023/05/06 10:27:23;;;;;;;5.78;5.15;;;;;;;;;;4980663;28;20042;-58
2023/05/06 10:29:51;;;;;;;5.72;4.95;;;;;;;;;;4970862;28;20936;-59
2023/05/06 10:32:18;;;;;;;5.45;4.70;;;;;;;;;;4982974;28;20096;-57
2023/05/06 10:34:51;;;;;;;4.53;4.22;;;;;;;;;;4981835;28;20528;-58
2023/05/06 10:37:17;;;;;;;5.13;4.63;;;;;;;;;;4983036;28;20038;-58
2023/05/06 10:39:43;;;;;;;7.32;5.07;;;;;;;;;;4983371;28;20350;-58
2023/05/06 10:42:09;;;;;;;5.68;5.15;;;;;;;;;;4980169;28;20042;-59
2023/05/06 10:44:53;;;;;;;5.70;5.30;;;;;;;;;;4980963;28;20042;-58
2023/05/06 10:47:18;;;;;;;5.30;4.70;;;;;;;;;;4983278;28;20042;-59
2023/05/06 10:50:04;;;;;;;4.90;4.50;;;;;;;;;;4981864;28;20034;-59
2023/05/06 10:52:45;;;;;;;6.28;4.45;;;;;;;;;;4977834;28;20468;-59
2023/05/06 10:55:29;;;;;;;4.53;4.22;;;;;;;;;;4980024;28;20047;-60
2023/05/06 10:58:00;;;;;;;4.72;4.40;;;;;;;;;;4979567;28;20045;-58
2023/05/06 11:00:29;;;;;;;4.20;3.58;;;;;;;;;;4980153;28;20114;-59
2023/05/06 11:02:55;;;;;;;5.10;4.53;;;;;;;;;;4980710;28;20039;-59
2023/05/06 11:05:21;;;;;;;4.35;4.00;;;;;;;;;;4979563;28;20089;-59
2023/05/06 11:07:48;;;;;;;5.65;4.65;;;;;;;;;;4979980;28;20030;-58
2023/05/06 11:10:14;;;;;;;4.30;4.00;;;;;;;;;;4981923;28;20093;-58
2023/05/06 11:12:47;;;;;;;4.32;3.90;;;;;;;;;;4979591;28;20440;-58
2023/05/06 11:15:19;;;;;;;4.20;3.80;;;;;;;;;;4971986;28;20045;-59
2023/05/06 11:17:44;;;;;;;4.18;3.88;;;;;;;;;;4983115;28;20108;-59
2023/05/06 11:20:20;;;;;;;9.57;4.50;;;;;;;;;;4981627;28;20042;-58
2023/05/06 11:22:46;;;;;;;4.20;3.90;;;;;;;;;;4980954;28;20062;-60
2023/05/06 11:25:12;;;;;;;3.67;3.35;;;;;;;;;;4979242;28;20470;-58
2023/05/06 11:27:37;;;;;;;3.55;3.25;;;;;;;;;;4980858;28;20043;-58
2023/05/06 11:30:04;;;;;;;3.83;3.50;;;;;;;;;;4981777;28;20042;-59
2023/05/06 11:32:31;;;;;;;3.47;3.13;;;;;;;;;;4981915;28;20034;-57
2023/05/06 11:34:57;;;;;;;3.70;3.40;;;;;;;;;;4986276;28;20099;-59
2023/05/06 11:37:26;;;;;;;3.70;3.40;;;;;;;;;;4986263;28;20541;-58
2023/05/06 11:39:51;;;;;;;3.28;3.08;;;;;;;;;;4983722;28;20539;-59
2023/05/06 11:42:24;;;;;;;3.22;3.03;;;;;;;;;;4985270;28;20043;-59
2023/05/06 11:44:52;;;;;;;3.15;2.95;;;;;;;;;;5000440;28;20402;-58
2023/05/06 11:47:19;;;;;;;4.22;3.78;;;;;;;;;;4982991;28;20034;-58
2023/05/06 11:49:45;;;;;;;3.17;2.97;;;;;;;;;;4982113;28;20129;-59
2023/05/06 11:52:11;;;;;;;4.43;2.80;;;;;;;;;;4983680;28;20129;-57
2023/05/06 11:54:41;;;;;;;3.47;3.20;;;;;;;;;;4982600;28;20049;-59
2023/05/06 11:57:07;;;;;;;3.08;2.80;;;;;;;;;;4987718;28;20045;-58
2023/05/06 11:59:33;;;;;;;3.38;3.05;;;;;;;;;;4982832;28;20042;-59
2023/05/06 12:01:59;;;;;;;5.93;2.85;;;;;;;;;;4982748;28;20664;-58
2023/05/06 12:04:25;;;;;;;4.60;3.28;;;;;;;;;;4979924;28;20343;-59
2023/05/06 12:06:51;;;;;;;4.68;3.40;;;;;;;;;;4981101;28;20076;-59
2023/05/06 12:09:16;;;;;;;3.00;2.80;;;;;;;;;;4981608;28;20034;-58
2023/05/06 12:11:42;;;;;;;6.50;3.08;;;;;;;;;;4982325;28;20116;-59
2023/05/06 12:14:09;;;;;;;3.65;3.38;;;;;;;;;;4983685;28;20572;-59
2023/05/06 12:16:35;;;;;;;5.50;4.90;;;;;;;;;;4981068;28;20504;-59
2023/05/06 12:19:01;;;;;;;2.97;2.78;;;;;;;;;;4983232;28;20122;-60
2023/05/06 12:21:27;;;;;;;3.08;2.88;;;;;;;;;;4983164;28;20551;-59
2023/05/06 12:23:54;;;;;;;3.38;3.08;;;;;;;;;;4983006;28;20030;-59
2023/05/06 12:26:21;;;;;;;2.88;2.67;;;;;;;;;;4981406;28;20038;-59
2023/05/06 12:28:46;;;;;;;4.50;2.80;;;;;;;;;;4980489;28;20035;-59
2023/05/06 12:31:21;;;;;;;2.80;2.70;;;;;;;;;;4981733;28;20422;-59
2023/05/06 12:33:48;;;;;;;4.13;3.38;;;;;;;;;;4984414;28;20486;-59
2023/05/06 12:36:14;;;;;;;2.75;2.53;;;;;;;;;;4983715;28;20038;-59
2023/05/06 12:38:48;;;;;;;3.65;3.30;;;;;;;;;;4982726;28;20438;-56
2023/05/06 12:41:14;;;;;;;8.15;5.25;;;;;;;;;;4982034;28;20042;-59
2023/05/06 12:43:39;;;;;;;5.32;4.78;;;;;;;;;;4982506;28;20525;-61
2023/05/06 12:46:05;;;;;;;10.43;6.93;;;;;;;;;;4983203;28;20452;-60
2023/05/06 12:48:31;;;;;;;16.80;10.93;;;;;;;;;;4982761;28;20031;-59
2023/05/06 12:50:57;;;;;;;10.98;6.57;;;;;;;;;;4984015;28;20046;-58
2023/05/06 12:53:32;;;;;;;9.73;7.05;;;;;;;;;;4984137;28;20600;-59
2023/05/06 12:55:57;;;;;;;9.98;8.48;;;;;;;;;;4982820;28;20042;-59
2023/05/06 12:58:23;;;;;;;9.20;7.60;;;;;;;;;;4985145;28;20052;-59
2023/05/06 13:00:48;;;;;;;5.93;4.88;;;;;;;;;;4983693;28;20053;-59
2023/05/06 13:03:14;;;;;;;5.70;5.15;;;;;;;;;;4983394;28;20162;-59
2023/05/06 13:05:40;;;;;;;4.80;4.40;;;;;;;;;;4982402;28;20042;-59
2023/05/06 13:08:05;;;;;;;4.55;4.20;;;;;;;;;;4981544;28;20049;-59
2023/05/06 13:10:31;;;;;;;9.13;6.78;;;;;;;;;;4982042;28;20092;-60
2023/05/06 13:12:56;;;;;;;10.38;7.88;;;;;;;;;;4984586;28;20026;-58
2023/05/06 13:15:22;;;;;;;11.80;9.90;;;;;;;;;;4982413;28;20053;-59
2023/05/06 13:17:48;;;;;;;7.13;6.18;;;;;;;;;;4981219;28;20050;-59
2023/05/06 13:20:14;;;;;;;6.03;5.53;;;;;;;;;;4982709;28;20400;-59
2023/05/06 13:22:40;;;;;;;7.38;6.55;;;;;;;;;;4982759;28;20493;-59
2023/05/06 13:25:05;;;;;;;4.95;4.45;;;;;;;;;;4984714;28;20053;-60
2023/05/06 13:27:31;;;;;;;4.00;3.60;;;;;;;;;;4981676;28;20042;-59
2023/05/06 13:29:56;;;;;;;3.60;3.40;;;;;;;;;;4981671;28;20066;-58
2023/05/06 13:32:22;;;;;;;10.90;9.32;;;;;;;;;;4972669;28;20045;-59
2023/05/06 13:34:47;;;;;;;7.35;6.28;;;;;;;;;;4987465;28;20089;-58
2023/05/06 13:37:13;;;;;;;4.38;4.05;;;;;;;;;;4982514;28;20395;-59
2023/05/06 13:39:39;;;;;;;4.10;3.80;;;;;;;;;;4982086;28;20092;-60
2023/05/06 13:42:04;;;;;;;3.95;3.60;;;;;;;;;;4984094;28;20468;-59
2023/05/06 13:44:30;;;;;;;4.53;4.22;;;;;;;;;;4982015;28;20049;-59
2023/05/06 13:46:55;;;;;;;6.72;4.97;;;;;;;;;;4983169;28;20034;-61
2023/05/06 13:49:21;;;;;;;4.55;4.05;;;;;;;;;;4981904;28;20034;-59
2023/05/06 13:51:46;;;;;;;4.22;3.83;;;;;;;;;;4982369;28;20074;-60
2023/05/06 13:54:12;;;;;;;4.72;4.38;;;;;;;;;;4979830;28;20046;-59
2023/05/06 13:56:37;;;;;;;10.52;5.10;;;;;;;;;;4977421;28;20504;-59
2023/05/06 13:59:03;;;;;;;5.10;4.70;;;;;;;;;;4979712;28;20094;-59
2023/05/06 14:01:28;;;;;;;6.82;6.25;;;;;;;;;;4981948;28;20080;-60
2023/05/06 14:03:54;;;;;;;7.30;5.60;;;;;;;;;;4980049;28;20409;-59
2023/05/06 14:06:19;;;;;;;5.85;5.45;;;;;;;;;;4980084;28;20428;-60
2023/05/06 14:08:45;;;;;;;6.13;5.72;;;;;;;;;;4980091;28;20070;-59
2023/05/06 14:11:10;;;;;;;5.32;4.93;;;;;;;;;;4979941;28;20064;-59
2023/05/06 14:13:36;;;;;;;5.60;5.15;;;;;;;;;;4981617;28;20054;-60
2023/05/06 14:16:02;;;;;;;5.18;4.80;;;;;;;;;;4981062;28;20057;-60
2023/05/06 14:18:28;;;;;;;5.38;4.88;;;;;;;;;;4979777;28;20062;-59
2023/05/06 14:20:55;;;;;;;5.38;4.97;;;;;;;;;;4981465;28;20413;-59
2023/05/06 14:23:20;;;;;;;5.93;5.43;;;;;;;;;;4978900;28;20053;-59
2023/05/06 14:25:45;;;;;;;6.07;5.22;;;;;;;;;;4977073;28;20121;-58
2023/05/06 14:28:11;;;;;;;6.97;5.30;;;;;;;;;;4980638;28;20587;-58
2023/05/06 14:30:37;;;;;;;5.50;5.00;;;;;;;;;;4980246;28;20149;-59
2023/05/06 14:33:03;;;;;;;5.47;5.07;;;;;;;;;;4982679;28;20038;-59
2023/05/06 14:35:29;;;;;;;5.28;4.78;;;;;;;;;;4980947;28;20512;-59
2023/05/06 14:37:54;;;;;;;5.13;4.78;;;;;;;;;;4983900;28;20500;-59